sensor_id;sensor_type;location;lat;lon;timestamp;pressure;altitude;pressure_sealevel;temperature;humidity
52745;BME280;38637;49.984;20.426;2023-05-29T00:02:02;99529.84;;;11.53;84.48
52745;BME280;38637;49.984;20.426;2023-05-29T00:04:28;99530.41;;;11.55;84.12
52745;BME280;38637;49.984;20.426;2023-05-29T00:06:53;99524.13;;;11.54;83.90
52745;BME280;38637;49.984;20.426;2023-05-29T00:09:18;99539.91;;;11.47;84.11
52745;BME280;38637;49.984;20.426;2023-05-29T00:11:43;99529.75;;;11.37;84.42
52745;BME280;38637;49.984;20.426;2023-05-29T00:14:09;99531.38;;;11.33;84.48
52745;BME280;38637;49.984;20.426;2023-05-29T00:16:38;99536.25;;;11.31;84.52
52745;BME280;38637;49.984;20.426;2023-05-29T00:19:04;99528.88;;;11.26;84.41
52745;BME280;38637;49.984;20.426;2023-05-29T00:21:29;99519.50;;;11.17;85.55
52745;BME280;38637;49.984;20.426;2023-05-29T00:23:55;99528.19;;;11.09;85.95
52745;BME280;38637;49.984;20.426;2023-05-29T00:26:20;99524.00;;;11.01;87.04
52745;BME280;38637;49.984;20.426;2023-05-29T00:28:46;99528.03;;;10.94;87.19
52745;BME280;38637;49.984;20.426;2023-05-29T00:31:11;99525.53;;;10.87;87.28
52745;BME280;38637;49.984;20.426;2023-05-29T00:33:36;99530.69;;;10.84;87.71
52745;BME280;38637;49.984;20.426;2023-05-29T00:36:02;99520.59;;;10.84;87.50
52745;BME280;38637;49.984;20.426;2023-05-29T00:38:27;99525.47;;;10.82;87.78
52745;BME280;38637;49.984;20.426;2023-05-29T00:40:52;99522.75;;;10.82;87.28
52745;BME280;38637;49.984;20.426;2023-05-29T00:43:17;99527.91;;;10.78;87.91
52745;BME280;38637;49.984;20.426;2023-05-29T00:45:43;99536.34;;;10.77;87.87
52745;BME280;38637;49.984;20.426;2023-05-29T00:48:08;99525.19;;;10.78;87.75
52745;BME280;38637;49.984;20.426;2023-05-29T00:50:33;99523.78;;;10.76;87.89
52745;BME280;38637;49.984;20.426;2023-05-29T00:52:59;99524.88;;;10.75;87.87
52745;BME280;38637;49.984;20.426;2023-05-29T00:55:26;99519.66;;;10.73;87.49
52745;BME280;38637;49.984;20.426;2023-05-29T00:57:51;99526.97;;;10.68;86.49
52745;BME280;38637;49.984;20.426;2023-05-29T01:00:17;99528.88;;;10.67;86.48
52745;BME280;38637;49.984;20.426;2023-05-29T01:02:43;99523.44;;;10.67;86.52
52745;BME280;38637;49.984;20.426;2023-05-29T01:05:09;99529.16;;;10.66;87.10
52745;BME280;38637;49.984;20.426;2023-05-29T01:07:36;99528.59;;;10.64;87.42
52745;BME280;38637;49.984;20.426;2023-05-29T01:10:01;99524.75;;;10.65;87.26
52745;BME280;38637;49.984;20.426;2023-05-29T01:12:36;99527.50;;;10.65;86.82
52745;BME280;38637;49.984;20.426;2023-05-29T01:28:09;99520.69;;;10.40;87.66
52745;BME280;38637;49.984;20.426;2023-05-29T01:30:36;99515.75;;;10.37;87.25
52745;BME280;38637;49.984;20.426;2023-05-29T01:33:02;99515.75;;;10.37;87.50
52745;BME280;38637;49.984;20.426;2023-05-29T01:35:28;99517.41;;;10.38;87.47
52745;BME280;38637;49.984;20.426;2023-05-29T01:37:53;99514.34;;;10.34;87.33
52745;BME280;38637;49.984;20.426;2023-05-29T01:40:18;99520.31;;;10.31;87.29
52745;BME280;38637;49.984;20.426;2023-05-29T01:42:43;99512.63;;;10.28;87.60
52745;BME280;38637;49.984;20.426;2023-05-29T01:45:09;99518.38;;;10.27;87.70
52745;BME280;38637;49.984;20.426;2023-05-29T01:47:35;99516.88;;;10.19;87.95
52745;BME280;38637;49.984;20.426;2023-05-29T01:50:00;99520.63;;;10.13;88.44
52745;BME280;38637;49.984;20.426;2023-05-29T01:52:28;99515.44;;;10.11;88.50
52745;BME280;38637;49.984;20.426;2023-05-29T01:54:53;99506.44;;;10.11;88.16
52745;BME280;38637;49.984;20.426;2023-05-29T01:57:19;99514.34;;;10.12;87.70
52745;BME280;38637;49.984;20.426;2023-05-29T01:59:45;99511.06;;;10.10;87.76
52745;BME280;38637;49.984;20.426;2023-05-29T02:02:10;99505.84;;;10.09;87.82
52745;BME280;38637;49.984;20.426;2023-05-29T02:04:37;99508.84;;;10.07;87.80
52745;BME280;38637;49.984;20.426;2023-05-29T02:07:03;99502.81;;;10.05;87.64
52745;BME280;38637;49.984;20.426;2023-05-29T02:09:28;99506.88;;;10.03;87.47
52745;BME280;38637;49.984;20.426;2023-05-29T02:11:53;99513.66;;;10.00;87.66
52745;BME280;38637;49.984;20.426;2023-05-29T02:14:19;99505.97;;;9.97;89.12
52745;BME280;38637;49.984;20.426;2023-05-29T02:16:44;99507.31;;;9.95;90.63
52745;BME280;38637;49.984;20.426;2023-05-29T02:19:10;99499.91;;;9.90;91.96
52745;BME280;38637;49.984;20.426;2023-05-29T02:21:38;99508.31;;;9.88;91.99
52745;BME280;38637;49.984;20.426;2023-05-29T02:24:04;99503.44;;;9.90;91.35
52745;BME280;38637;49.984;20.426;2023-05-29T02:26:29;99503.22;;;9.92;90.87
52745;BME280;38637;49.984;20.426;2023-05-29T02:28:54;99501.03;;;9.94;90.17
52745;BME280;38637;49.984;20.426;2023-05-29T02:31:20;99499.13;;;9.95;89.15
52745;BME280;38637;49.984;20.426;2023-05-29T02:33:45;99502.34;;;9.92;88.72
52745;BME280;38637;49.984;20.426;2023-05-29T02:36:10;99497.41;;;9.88;88.45
52745;BME280;38637;49.984;20.426;2023-05-29T02:38:36;99488.38;;;9.83;89.66
52745;BME280;38637;49.984;20.426;2023-05-29T02:41:01;99509.59;;;9.81;89.79
52745;BME280;38637;49.984;20.426;2023-05-29T02:43:27;99499.19;;;9.78;90.19
52745;BME280;38637;49.984;20.426;2023-05-29T02:45:52;99504.06;;;9.76;89.53
52745;BME280;38637;49.984;20.426;2023-05-29T02:48:17;99494.00;;;9.76;89.50
52745;BME280;38637;49.984;20.426;2023-05-29T02:50:42;99499.00;;;9.84;89.53
52745;BME280;38637;49.984;20.426;2023-05-29T02:53:07;99494.44;;;9.90;89.12
52745;BME280;38637;49.984;20.426;2023-05-29T02:55:33;99492.84;;;9.94;89.05
52745;BME280;38637;49.984;20.426;2023-05-29T02:58:00;99487.97;;;9.96;88.34
52745;BME280;38637;49.984;20.426;2023-05-29T03:00:26;99488.88;;;10.02;87.92
52745;BME280;38637;49.984;20.426;2023-05-29T03:02:53;99493.53;;;10.06;87.64
52745;BME280;38637;49.984;20.426;2023-05-29T03:05:19;99486.25;;;10.12;87.33
52745;BME280;38637;49.984;20.426;2023-05-29T03:07:44;99483.31;;;10.19;86.73
52745;BME280;38637;49.984;20.426;2023-05-29T03:10:09;99486.69;;;10.26;86.57
52745;BME280;38637;49.984;20.426;2023-05-29T03:12:35;99487.56;;;10.31;86.57
52745;BME280;38637;49.984;20.426;2023-05-29T03:15:00;99495.06;;;10.41;86.05
52745;BME280;38637;49.984;20.426;2023-05-29T03:17:25;99497.06;;;10.51;85.89
52745;BME280;38637;49.984;20.426;2023-05-29T03:19:50;99497.44;;;10.60;85.65
52745;BME280;38637;49.984;20.426;2023-05-29T03:22:16;99499.94;;;10.66;85.19
52745;BME280;38637;49.984;20.426;2023-05-29T03:24:41;99511.22;;;10.75;85.06
52745;BME280;38637;49.984;20.426;2023-05-29T03:27:06;99503.38;;;10.84;84.85
52745;BME280;38637;49.984;20.426;2023-05-29T03:29:32;99498.25;;;10.92;84.52
52745;BME280;38637;49.984;20.426;2023-05-29T03:31:57;99504.31;;;10.99;84.42
52745;BME280;38637;49.984;20.426;2023-05-29T03:34:22;99509.03;;;11.09;83.81
52745;BME280;38637;49.984;20.426;2023-05-29T03:36:48;99503.94;;;11.23;83.52
52745;BME280;38637;49.984;20.426;2023-05-29T03:39:14;99501.88;;;11.40;82.83
52745;BME280;38637;49.984;20.426;2023-05-29T03:41:39;99507.72;;;11.54;82.00
52745;BME280;38637;49.984;20.426;2023-05-29T03:44:04;99505.84;;;11.65;81.37
52745;BME280;38637;49.984;20.426;2023-05-29T03:46:30;99511.63;;;11.73;80.90
52745;BME280;38637;49.984;20.426;2023-05-29T03:48:56;99518.50;;;11.76;81.06
52745;BME280;38637;49.984;20.426;2023-05-29T03:51:21;99515.75;;;11.76;81.17
52745;BME280;38637;49.984;20.426;2023-05-29T03:53:46;99510.28;;;11.76;81.39
52745;BME280;38637;49.984;20.426;2023-05-29T03:56:11;99509.75;;;11.79;81.58
52745;BME280;38637;49.984;20.426;2023-05-29T03:58:36;99510.88;;;11.83;81.54
52745;BME280;38637;49.984;20.426;2023-05-29T04:01:02;99509.28;;;11.92;81.69
52745;BME280;38637;49.984;20.426;2023-05-29T04:03:27;99520.00;;;11.99;81.44
52745;BME280;38637;49.984;20.426;2023-05-29T04:05:54;99517.88;;;12.16;81.16
52745;BME280;38637;49.984;20.426;2023-05-29T04:08:20;99511.06;;;12.29;80.80
52745;BME280;38637;49.984;20.426;2023-05-29T04:10:45;99531.38;;;12.49;80.20
52745;BME280;38637;49.984;20.426;2023-05-29T04:13:11;99516.38;;;12.72;79.57
52745;BME280;38637;49.984;20.426;2023-05-29T04:15:36;99513.91;;;12.85;79.11
52745;BME280;38637;49.984;20.426;2023-05-29T04:18:02;99522.66;;;12.98;78.86
52745;BME280;38637;49.984;20.426;2023-05-29T04:20:28;99524.88;;;13.11;78.32
52745;BME280;38637;49.984;20.426;2023-05-29T04:22:53;99521.63;;;13.29;77.88
52745;BME280;38637;49.984;20.426;2023-05-29T04:25:18;99519.94;;;13.49;77.37
52745;BME280;38637;49.984;20.426;2023-05-29T04:27:46;99525.09;;;13.71;77.14
52745;BME280;38637;49.984;20.426;2023-05-29T04:30:15;99526.41;;;13.89;76.46
52745;BME280;38637;49.984;20.426;2023-05-29T04:32:41;99518.94;;;14.05;75.89
52745;BME280;38637;49.984;20.426;2023-05-29T04:35:06;99525.47;;;14.19;75.49
52745;BME280;38637;49.984;20.426;2023-05-29T04:37:32;99514.09;;;14.41;75.27
52745;BME280;38637;49.984;20.426;2023-05-29T04:40:02;99513.16;;;14.66;74.49
52745;BME280;38637;49.984;20.426;2023-05-29T04:42:29;99516.00;;;14.90;73.78
52745;BME280;38637;49.984;20.426;2023-05-29T04:44:58;99507.13;;;15.03;73.07
52745;BME280;38637;49.984;20.426;2023-05-29T04:47:23;99504.50;;;15.17;71.90
52745;BME280;38637;49.984;20.426;2023-05-29T04:49:49;99500.34;;;15.25;71.63
52745;BME280;38637;49.984;20.426;2023-05-29T04:52:18;99504.03;;;15.39;71.21
52745;BME280;38637;49.984;20.426;2023-05-29T04:54:43;99508.91;;;15.47;71.23
52745;BME280;38637;49.984;20.426;2023-05-29T04:57:08;99496.72;;;15.53;70.93
52745;BME280;38637;49.984;20.426;2023-05-29T04:59:34;99503.78;;;15.65;70.88
52745;BME280;38637;49.984;20.426;2023-05-29T05:02:00;99502.56;;;15.76;70.20
52745;BME280;38637;49.984;20.426;2023-05-29T05:04:25;99505.28;;;15.81;70.00
52745;BME280;38637;49.984;20.426;2023-05-29T05:06:50;99508.56;;;15.83;69.63
52745;BME280;38637;49.984;20.426;2023-05-29T05:09:16;99499.50;;;15.82;69.61
52745;BME280;38637;49.984;20.426;2023-05-29T05:11:42;99504.41;;;15.85;70.19
52745;BME280;38637;49.984;20.426;2023-05-29T05:14:08;99504.09;;;15.87;69.65
52745;BME280;38637;49.984;20.426;2023-05-29T05:16:33;99512.59;;;15.91;68.76
52745;BME280;38637;49.984;20.426;2023-05-29T05:18:58;99510.06;;;15.94;66.99
52745;BME280;38637;49.984;20.426;2023-05-29T05:21:23;99513.06;;;15.98;67.05
52745;BME280;38637;49.984;20.426;2023-05-29T05:23:48;99517.69;;;16.02;67.45
52745;BME280;38637;49.984;20.426;2023-05-29T05:26:14;99514.34;;;16.05;67.61
52745;BME280;38637;49.984;20.426;2023-05-29T05:28:39;99519.22;;;16.14;67.30
52745;BME280;38637;49.984;20.426;2023-05-29T05:31:04;99514.38;;;16.24;67.25
52745;BME280;38637;49.984;20.426;2023-05-29T05:33:29;99520.06;;;16.33;66.53
52745;BME280;38637;49.984;20.426;2023-05-29T05:35:55;99520.88;;;16.34;65.89
52745;BME280;38637;49.984;20.426;2023-05-29T05:38:20;99514.53;;;16.33;65.81
52745;BME280;38637;49.984;20.426;2023-05-29T05:40:45;99514.53;;;16.33;66.42
52745;BME280;38637;49.984;20.426;2023-05-29T05:43:10;99518.81;;;16.44;66.51
52745;BME280;38637;49.984;20.426;2023-05-29T05:45:35;99513.00;;;16.46;66.27
52745;BME280;38637;49.984;20.426;2023-05-29T05:48:02;99510.09;;;16.56;66.31
52745;BME280;38637;49.984;20.426;2023-05-29T05:50:28;99515.91;;;16.73;65.98
52745;BME280;38637;49.984;20.426;2023-05-29T05:52:53;99479.47;;;16.58;65.60
52745;BME280;38637;49.984;20.426;2023-05-29T05:55:19;99508.44;;;16.74;66.11
52745;BME280;38637;49.984;20.426;2023-05-29T05:57:44;99507.03;;;16.95;66.18
52745;BME280;38637;49.984;20.426;2023-05-29T06:00:09;99516.19;;;17.10;65.57
52745;BME280;38637;49.984;20.426;2023-05-29T06:02:38;99514.78;;;17.26;65.32
52745;BME280;38637;49.984;20.426;2023-05-29T06:05:03;99517.00;;;17.43;65.00
52745;BME280;38637;49.984;20.426;2023-05-29T06:07:29;99525.41;;;17.52;64.28
52745;BME280;38637;49.984;20.426;2023-05-29T06:09:54;99531.88;;;17.61;63.76
52745;BME280;38637;49.984;20.426;2023-05-29T06:12:19;99529.50;;;17.68;63.37
52745;BME280;38637;49.984;20.426;2023-05-29T06:14:44;99529.56;;;17.82;63.45
52745;BME280;38637;49.984;20.426;2023-05-29T06:17:10;99534.88;;;17.92;62.01
52745;BME280;38637;49.984;20.426;2023-05-29T06:19:35;99541.13;;;17.98;61.95
52745;BME280;38637;49.984;20.426;2023-05-29T06:22:00;99544.91;;;18.02;61.33
52745;BME280;38637;49.984;20.426;2023-05-29T06:24:26;99542.56;;;18.09;61.25
52745;BME280;38637;49.984;20.426;2023-05-29T06:26:51;99556.59;;;18.12;60.73
52745;BME280;38637;49.984;20.426;2023-05-29T06:29:16;99552.19;;;18.11;61.40
52745;BME280;38637;49.984;20.426;2023-05-29T06:31:41;99549.22;;;18.08;61.30
52745;BME280;38637;49.984;20.426;2023-05-29T06:34:06;99547.09;;;18.19;60.25
52745;BME280;38637;49.984;20.426;2023-05-29T06:36:32;99553.81;;;18.26;59.60
52745;BME280;38637;49.984;20.426;2023-05-29T06:38:57;99551.97;;;18.35;59.17
52745;BME280;38637;49.984;20.426;2023-05-29T06:41:22;99551.53;;;18.42;58.92
52745;BME280;38637;49.984;20.426;2023-05-29T06:43:48;99548.69;;;18.47;58.74
52745;BME280;38637;49.984;20.426;2023-05-29T06:46:14;99551.44;;;18.61;59.21
52745;BME280;38637;49.984;20.426;2023-05-29T06:48:39;99550.91;;;18.59;58.03
52745;BME280;38637;49.984;20.426;2023-05-29T06:51:04;99556.22;;;18.69;57.74
52745;BME280;38637;49.984;20.426;2023-05-29T06:53:34;99557.13;;;18.78;57.70
52745;BME280;38637;49.984;20.426;2023-05-29T06:56:00;99557.13;;;18.78;56.67
52745;BME280;38637;49.984;20.426;2023-05-29T06:58:25;99556.66;;;18.76;56.00
52745;BME280;38637;49.984;20.426;2023-05-29T07:00:50;99557.41;;;18.91;56.31
52745;BME280;38637;49.984;20.426;2023-05-29T07:03:16;99562.59;;;19.06;56.69
52745;BME280;38637;49.984;20.426;2023-05-29T07:05:41;99563.97;;;19.17;56.13
52745;BME280;38637;49.984;20.426;2023-05-29T07:08:06;99575.78;;;19.09;54.75
52745;BME280;38637;49.984;20.426;2023-05-29T07:10:32;99568.75;;;19.03;55.28
52745;BME280;38637;49.984;20.426;2023-05-29T07:12:57;99561.72;;;19.19;55.53
52745;BME280;38637;49.984;20.426;2023-05-29T07:15:22;99574.88;;;19.36;55.67
52745;BME280;38637;49.984;20.426;2023-05-29T07:17:48;99567.63;;;19.49;55.49
52745;BME280;38637;49.984;20.426;2023-05-29T07:20:13;99565.53;;;19.55;55.37
52745;BME280;38637;49.984;20.426;2023-05-29T07:22:40;99562.47;;;19.56;55.28
52745;BME280;38637;49.984;20.426;2023-05-29T07:25:05;99564.16;;;19.43;54.80
52745;BME280;38637;49.984;20.426;2023-05-29T07:27:30;99562.47;;;19.34;55.76
52745;BME280;38637;49.984;20.426;2023-05-29T07:29:55;99571.16;;;19.41;55.55
52745;BME280;38637;49.984;20.426;2023-05-29T07:32:21;99554.09;;;19.47;54.24
52745;BME280;38637;49.984;20.426;2023-05-29T07:34:46;99559.50;;;19.52;53.35
52745;BME280;38637;49.984;20.426;2023-05-29T07:37:12;99557.59;;;19.62;53.31
52745;BME280;38637;49.984;20.426;2023-05-29T07:39:37;99560.06;;;19.63;52.64
52745;BME280;38637;49.984;20.426;2023-05-29T07:42:02;99560.06;;;19.63;53.23
52745;BME280;38637;49.984;20.426;2023-05-29T07:44:28;99558.47;;;19.71;53.70
52745;BME280;38637;49.984;20.426;2023-05-29T07:46:53;99551.00;;;19.71;53.92
52745;BME280;38637;49.984;20.426;2023-05-29T07:49:21;99559.38;;;19.58;51.96
52745;BME280;38637;49.984;20.426;2023-05-29T07:51:47;99559.47;;;19.44;51.11
52745;BME280;38637;49.984;20.426;2023-05-29T07:54:12;99569.28;;;19.50;51.71
52745;BME280;38637;49.984;20.426;2023-05-29T07:56:37;99567.75;;;19.66;51.79
52745;BME280;38637;49.984;20.426;2023-05-29T07:59:03;99565.41;;;19.82;51.48
52745;BME280;38637;49.984;20.426;2023-05-29T08:01:29;99567.06;;;19.92;51.53
52745;BME280;38637;49.984;20.426;2023-05-29T08:03:54;99567.63;;;20.03;51.80
52745;BME280;38637;49.984;20.426;2023-05-29T08:06:20;99567.34;;;20.22;51.94
52745;BME280;38637;49.984;20.426;2023-05-29T08:08:45;99568.19;;;20.22;51.28
52745;BME280;38637;49.984;20.426;2023-05-29T08:11:10;99570.88;;;20.05;51.28
52745;BME280;38637;49.984;20.426;2023-05-29T08:13:35;99574.69;;;20.17;52.02
52745;BME280;38637;49.984;20.426;2023-05-29T08:16:01;99570.34;;;20.34;51.19
52745;BME280;38637;49.984;20.426;2023-05-29T08:18:26;99576.66;;;20.26;49.37
52745;BME280;38637;49.984;20.426;2023-05-29T08:20:52;99566.84;;;20.19;49.61
52745;BME280;38637;49.984;20.426;2023-05-29T08:23:17;99560.84;;;20.17;51.56
52745;BME280;38637;49.984;20.426;2023-05-29T08:25:43;99564.28;;;20.32;48.36
52745;BME280;38637;49.984;20.426;2023-05-29T08:28:08;99561.53;;;20.40;48.19
52745;BME280;38637;49.984;20.426;2023-05-29T08:30:33;99554.38;;;20.48;47.99
52745;BME280;38637;49.984;20.426;2023-05-29T08:32:58;99560.41;;;20.50;46.07
52745;BME280;38637;49.984;20.426;2023-05-29T08:35:23;99556.41;;;20.65;46.67
52745;BME280;38637;49.984;20.426;2023-05-29T08:37:49;99558.69;;;20.80;46.38
52745;BME280;38637;49.984;20.426;2023-05-29T08:40:14;99565.06;;;20.81;45.49
52745;BME280;38637;49.984;20.426;2023-05-29T08:42:42;99561.16;;;20.82;45.94
52745;BME280;38637;49.984;20.426;2023-05-29T08:45:09;99561.31;;;20.77;44.40
52745;BME280;38637;49.984;20.426;2023-05-29T08:47:36;99566.22;;;20.80;45.20
52745;BME280;38637;49.984;20.426;2023-05-29T08:50:03;99569.47;;;20.91;47.01
52745;BME280;38637;49.984;20.426;2023-05-29T08:52:30;99565.06;;;20.89;47.97
52745;BME280;38637;49.984;20.426;2023-05-29T08:54:57;99562.97;;;20.95;48.29
52745;BME280;38637;49.984;20.426;2023-05-29T08:57:23;99561.00;;;20.87;48.06
52745;BME280;38637;49.984;20.426;2023-05-29T08:59:50;99567.00;;;20.72;47.36
52745;BME280;38637;49.984;20.426;2023-05-29T09:02:16;99570.44;;;20.69;48.30
52745;BME280;38637;49.984;20.426;2023-05-29T09:04:41;99572.09;;;20.70;48.29
52745;BME280;38637;49.984;20.426;2023-05-29T09:07:09;99561.31;;;20.85;47.79
52745;BME280;38637;49.984;20.426;2023-05-29T09:12:37;99563.63;;;21.09;49.07
52745;BME280;38637;49.984;20.426;2023-05-29T09:15:08;99570.16;;;21.14;48.81
52745;BME280;38637;49.984;20.426;2023-05-29T09:17:42;99562.31;;;21.16;47.29
52745;BME280;38637;49.984;20.426;2023-05-29T09:20:14;99560.19;;;21.13;47.63
52745;BME280;38637;49.984;20.426;2023-05-29T09:22:40;99549.22;;;21.33;47.07
52745;BME280;38637;49.984;20.426;2023-05-29T09:25:07;99560.16;;;21.56;47.14
52745;BME280;38637;49.984;20.426;2023-05-29T09:27:38;99547.06;;;21.65;46.58
52745;BME280;38637;49.984;20.426;2023-05-29T09:30:03;99558.81;;;21.79;47.49
52745;BME280;38637;49.984;20.426;2023-05-29T09:32:28;99551.53;;;21.40;47.40
52745;BME280;38637;49.984;20.426;2023-05-29T09:34:59;99550.53;;;21.53;46.95
52745;BME280;38637;49.984;20.426;2023-05-29T09:37:25;99550.38;;;21.50;45.25
52745;BME280;38637;49.984;20.426;2023-05-29T09:39:50;99542.00;;;21.67;46.13
52745;BME280;38637;49.984;20.426;2023-05-29T09:42:18;99538.38;;;21.67;45.53
52745;BME280;38637;49.984;20.426;2023-05-29T09:44:44;99545.25;;;21.61;45.12
52745;BME280;38637;49.984;20.426;2023-05-29T09:47:16;99534.50;;;21.59;44.93
52745;BME280;38637;49.984;20.426;2023-05-29T09:49:42;99545.91;;;21.57;45.95
52745;BME280;38637;49.984;20.426;2023-05-29T09:52:08;99536.91;;;21.61;46.86
52745;BME280;38637;49.984;20.426;2023-05-29T09:54:34;99543.94;;;21.67;46.10
52745;BME280;38637;49.984;20.426;2023-05-29T09:57:01;99543.63;;;21.68;45.71
52745;BME280;38637;49.984;20.426;2023-05-29T09:59:29;99548.69;;;21.66;45.54
52745;BME280;38637;49.984;20.426;2023-05-29T10:02:01;99540.19;;;21.63;45.60
52745;BME280;38637;49.984;20.426;2023-05-29T10:04:30;99545.88;;;21.75;45.29
52745;BME280;38637;49.984;20.426;2023-05-29T10:06:57;99539.94;;;21.85;47.21
52745;BME280;38637;49.984;20.426;2023-05-29T10:09:26;99542.41;;;21.87;46.59
52745;BME280;38637;49.984;20.426;2023-05-29T10:11:52;99546.41;;;22.07;45.20
52745;BME280;38637;49.984;20.426;2023-05-29T10:14:18;99542.19;;;22.00;45.67
52745;BME280;38637;49.984;20.426;2023-05-29T10:16:48;99544.28;;;22.03;45.31
52745;BME280;38637;49.984;20.426;2023-05-29T10:19:17;99545.44;;;22.02;46.29
52745;BME280;38637;49.984;20.426;2023-05-29T10:21:43;99544.06;;;22.26;45.60
52745;BME280;38637;49.984;20.426;2023-05-29T10:24:09;99533.13;;;22.12;44.74
52745;BME280;38637;49.984;20.426;2023-05-29T10:26:37;99536.56;;;22.18;44.53
52745;BME280;38637;49.984;20.426;2023-05-29T10:34:39;99535.69;;;22.56;43.77
52745;BME280;38637;49.984;20.426;2023-05-29T10:39:32;99535.50;;;22.61;46.13
52745;BME280;38637;49.984;20.426;2023-05-29T10:41:58;99532.78;;;22.73;42.77
52745;BME280;38637;49.984;20.426;2023-05-29T10:49:22;99520.06;;;23.26;43.16
52745;BME280;38637;49.984;20.426;2023-05-29T10:51:48;99517.22;;;23.14;41.17
52745;BME280;38637;49.984;20.426;2023-05-29T10:54:14;99521.31;;;23.16;42.48
52745;BME280;38637;49.984;20.426;2023-05-29T10:56:40;99520.38;;;23.12;42.41
52745;BME280;38637;49.984;20.426;2023-05-29T10:59:06;99511.25;;;23.24;41.84
52745;BME280;38637;49.984;20.426;2023-05-29T11:01:32;99517.09;;;22.89;43.24
52745;BME280;38637;49.984;20.426;2023-05-29T11:06:41;99508.97;;;22.84;43.23
52745;BME280;38637;49.984;20.426;2023-05-29T11:09:26;99520.56;;;22.86;44.44
52745;BME280;38637;49.984;20.426;2023-05-29T11:14:44;99507.59;;;22.90;41.44
52745;BME280;38637;49.984;20.426;2023-05-29T11:17:09;99514.94;;;22.95;43.36
52745;BME280;38637;49.984;20.426;2023-05-29T11:19:53;99512.50;;;22.93;41.79
52745;BME280;38637;49.984;20.426;2023-05-29T11:22:19;99514.63;;;22.97;42.08
52745;BME280;38637;49.984;20.426;2023-05-29T11:24:47;99515.13;;;23.11;41.66
52745;BME280;38637;49.984;20.426;2023-05-29T11:27:13;99510.69;;;23.31;41.80
52745;BME280;38637;49.984;20.426;2023-05-29T11:29:38;99507.00;;;23.39;41.35
52745;BME280;38637;49.984;20.426;2023-05-29T11:32:05;99511.22;;;23.45;40.44
52745;BME280;38637;49.984;20.426;2023-05-29T11:34:31;99502.47;;;23.34;40.30
52745;BME280;38637;49.984;20.426;2023-05-29T11:37:00;99502.72;;;23.54;40.66
52745;BME280;38637;49.984;20.426;2023-05-29T11:39:25;99505.72;;;23.36;39.59
52745;BME280;38637;49.984;20.426;2023-05-29T11:41:51;99503.88;;;23.40;39.91
52745;BME280;38637;49.984;20.426;2023-05-29T11:44:17;99496.28;;;23.29;41.47
52745;BME280;38637;49.984;20.426;2023-05-29T11:46:43;99501.84;;;23.29;41.48
52745;BME280;38637;49.984;20.426;2023-05-29T11:49:08;99501.56;;;23.43;39.26
52745;BME280;38637;49.984;20.426;2023-05-29T11:51:33;99489.72;;;23.46;39.12
52745;BME280;38637;49.984;20.426;2023-05-29T11:53:58;99489.72;;;23.46;40.42
52745;BME280;38637;49.984;20.426;2023-05-29T11:56:27;99493.78;;;23.36;39.05
52745;BME280;38637;49.984;20.426;2023-05-29T11:58:53;99497.78;;;23.26;38.24
52745;BME280;38637;49.984;20.426;2023-05-29T12:01:25;99496.84;;;23.22;38.44
52745;BME280;38637;49.984;20.426;2023-05-29T12:03:51;99489.53;;;23.17;36.82
52745;BME280;38637;49.984;20.426;2023-05-29T12:06:29;99493.94;;;23.19;37.55
52745;BME280;38637;49.984;20.426;2023-05-29T12:08:56;99481.53;;;23.28;38.27
52745;BME280;38637;49.984;20.426;2023-05-29T12:11:24;99483.75;;;23.35;37.62
52745;BME280;38637;49.984;20.426;2023-05-29T12:13:55;99478.31;;;23.38;36.49
52745;BME280;38637;49.984;20.426;2023-05-29T12:16:20;99483.31;;;23.33;36.66
52745;BME280;38637;49.984;20.426;2023-05-29T12:18:45;99484.25;;;23.37;36.35
52745;BME280;38637;49.984;20.426;2023-05-29T12:21:11;99481.44;;;23.37;36.86
52745;BME280;38637;49.984;20.426;2023-05-29T12:23:37;99476.56;;;23.34;37.00
52745;BME280;38637;49.984;20.426;2023-05-29T12:26:02;99481.63;;;23.20;36.85
52745;BME280;38637;49.984;20.426;2023-05-29T12:28:27;99470.84;;;23.18;34.78
52745;BME280;38637;49.984;20.426;2023-05-29T12:30:57;99471.94;;;23.05;33.86
52745;BME280;38637;49.984;20.426;2023-05-29T12:33:29;99467.94;;;23.14;34.93
52745;BME280;38637;49.984;20.426;2023-05-29T12:36:00;99467.69;;;23.20;35.44
52745;BME280;38637;49.984;20.426;2023-05-29T12:38:26;99474.09;;;23.32;38.01
52745;BME280;38637;49.984;20.426;2023-05-29T12:40:52;99470.97;;;23.22;37.91
52745;BME280;38637;49.984;20.426;2023-05-29T12:43:18;99466.91;;;23.31;36.55
52745;BME280;38637;49.984;20.426;2023-05-29T12:45:44;99458.34;;;23.36;37.87
52745;BME280;38637;49.984;20.426;2023-05-29T12:48:09;99465.78;;;23.45;36.29
52745;BME280;38637;49.984;20.426;2023-05-29T12:50:37;99460.88;;;23.42;37.09
52745;BME280;38637;49.984;20.426;2023-05-29T12:55:32;99461.38;;;23.44;35.12
52745;BME280;38637;49.984;20.426;2023-05-29T12:58:04;99446.41;;;23.48;33.76
52745;BME280;38637;49.984;20.426;2023-05-29T13:00:30;99452.22;;;23.55;34.86
52745;BME280;38637;49.984;20.426;2023-05-29T13:02:56;99444.44;;;23.49;35.78
52745;BME280;38637;49.984;20.426;2023-05-29T13:05:23;99454.78;;;23.48;36.69
52745;BME280;38637;49.984;20.426;2023-05-29T13:07:49;99445.47;;;23.56;37.66
52745;BME280;38637;49.984;20.426;2023-05-29T13:10:15;99447.44;;;23.44;38.94
52745;BME280;38637;49.984;20.426;2023-05-29T13:12:41;99456.38;;;23.37;37.40
52745;BME280;38637;49.984;20.426;2023-05-29T13:15:06;99453.81;;;23.44;37.13
52745;BME280;38637;49.984;20.426;2023-05-29T13:17:32;99452.09;;;23.39;37.26
52745;BME280;38637;49.984;20.426;2023-05-29T13:19:57;99461.13;;;23.36;36.68
52745;BME280;38637;49.984;20.426;2023-05-29T13:22:22;99448.13;;;23.40;37.45